John Quigg — WDB9828 — position and weather

sailwx.info

Track history (hours):
 
Tides and Currents Weather Stations Pressure Air Temp Water Temp Dewpoint Dewpoint Depression Visibility Wind Speed Wind Dir Waves Ship Positions

John Quigg

Owner: Harley Marine Services, Inc, Seattle, WA. More information available from US FCC via Universal Licensing System and Coast Guard Vessel Documentation Center.

Last reported at 2015-Aug-30 09:33 UTC. Time now 2015-Aug-30 09:58 UTC.
Position N 33°44' W 118°16'.

MMSI: 365934954.

Date/timePositionNaut miles runAvg speedWind from/ knotsBaromVisibWave heightAir tempDewpointWater temp
2015-Aug-30 09:33N 33°44' W 118°16'0 0.0
2015-Aug-30 08:33N 33°44' W 118°16'0 0.0
2015-Aug-30 04:15N 33°44' W 118°16'0 0.0
2015-Aug-30 03:30N 33°44' W 118°16'0 0.0
2015-Aug-30 02:33N 33°44' W 118°16'0 0.0
2015-Aug-30 01:13N 33°44' W 118°16'0 0.0
2015-Aug-30 00:32N 33°44' W 118°16'0 0.0
2015-Aug-29 23:33N 33°44' W 118°16'3 3.1
2015-Aug-29 22:33N 33°44' W 118°12'1 1.0
2015-Aug-29 21:30N 33°44' W 118°11'4 3.7
2015-Aug-29 20:24N 33°43' W 118°16'1 0.3
2015-Aug-29 18:06N 33°44' W 118°16'0 0.0
2015-Aug-29 17:32N 33°44' W 118°16'0 0.0
2015-Aug-29 16:30N 33°44' W 118°16'0 0.0
2015-Aug-29 15:32N 33°44' W 118°16'0 0.0
2015-Aug-29 14:15N 33°44' W 118°16'4 1.3
2015-Aug-29 11:23N 33°44' W 118°11'3 3.5
2015-Aug-29 10:25N 33°43' W 118°15'1 0.4
2015-Aug-29 07:17N 33°44' W 118°16'0 0.0
2015-Aug-29 06:11N 33°44' W 118°16'0 0.0
2015-Aug-29 03:04N 33°44' W 118°16'0 0.0
2015-Aug-29 02:07N 33°44' W 118°16'0 0.0
2015-Aug-29 00:22N 33°44' W 118°16'0 0.0
2015-Aug-28 22:31N 33°44' W 118°16'0 0.0
2015-Aug-28 21:33N 33°44' W 118°16'0 0.0
2015-Aug-28 20:26N 33°44' W 118°16'0 0.0
2015-Aug-28 19:25N 33°44' W 118°16'0 0.0
2015-Aug-28 18:15N 33°44' W 118°16'0 0.0
2015-Aug-28 17:33N 33°44' W 118°16'0 0.0
2015-Aug-28 16:32N 33°44' W 118°16'1 0.8
2015-Aug-28 15:33N 33°44' W 118°17'1 0.7
2015-Aug-28 14:26N 33°44' W 118°16'2 2.4
2015-Aug-28 13:24N 33°45' W 118°13'3 1.3
2015-Aug-28 11:17N 33°43' W 118°16'1 0.3
2015-Aug-28 09:29N 33°44' W 118°16'0 0.0
2015-Aug-28 08:34N 33°44' W 118°16'0 0.0
2015-Aug-28 07:32N 33°44' W 118°16'0 0.0
2015-Aug-28 06:19N 33°44' W 118°16'0 0.0
2015-Aug-28 05:22N 33°44' W 118°16'0 0.0
2015-Aug-28 04:32N 33°44' W 118°16'0 0.0
2015-Aug-28 03:33N 33°44' W 118°16'0 0.0
2015-Aug-28 02:33N 33°44' W 118°16'0 0.2
2015-Aug-28 01:27N 33°44' W 118°15'0 0.2
2015-Aug-28 00:16N 33°44' W 118°16'0 0.0
2015-Aug-27 23:17N 33°44' W 118°16'0 0.0
2015-Aug-27 22:34N 33°44' W 118°16'0 0.0
2015-Aug-27 21:32N 33°44' W 118°16'0 0.0
2015-Aug-27 20:33N 33°44' W 118°16'0 0.0
2015-Aug-27 19:34N 33°44' W 118°16'3 3.0
2015-Aug-27 18:33N 33°44' W 118°12'1 0.6
2015-Aug-27 17:19N 33°44' W 118°12'3 2.8
2015-Aug-27 16:17N 33°44' W 118°16'0 0.1
2015-Aug-27 15:22N 33°44' W 118°16'2 1.3
2015-Aug-27 13:33N 33°45' W 118°13'1 0.8
2015-Aug-27 12:33N 33°46' W 118°13'2 1.8
2015-Aug-27 11:33N 33°44' W 118°12'3 3.0
2015-Aug-27 10:33N 33°44' W 118°16'0 0.3
2015-Aug-27 09:33N 33°44' W 118°16'0 0.0
2015-Aug-27 08:33N 33°44' W 118°16'0 0.0
2015-Aug-27 06:09N 33°44' W 118°16'0 0.0
2015-Aug-27 04:32N 33°44' W 118°16'0 0.0
2015-Aug-27 03:20N 33°44' W 118°16'0 0.0
2015-Aug-27 02:33N 33°44' W 118°16'0 0.0
2015-Aug-27 01:32N 33°44' W 118°16'0 0.0
2015-Aug-27 00:34N 33°44' W 118°16'3 2.8
2015-Aug-26 23:33N 33°44' W 118°12'5 5.4
2015-Aug-26 22:33N 33°44' W 118°06'4 3.9
2015-Aug-26 21:33N 33°44' W 118°11'4 4.1
2015-Aug-26 20:32N 33°44' W 118°16'0 0.0
2015-Aug-26 19:33N 33°44' W 118°16'0 0.0
2015-Aug-26 16:32N 33°44' W 118°16'0 0.0
2015-Aug-26 15:32N 33°44' W 118°16'0 0.0
2015-Aug-26 14:11N 33°44' W 118°16'1 2.0
2015-Aug-26 13:34N 33°43' W 118°15'2 2.3
2015-Aug-26 12:33N 33°44' W 118°12'3 2.8
2015-Aug-26 11:33N 33°44' W 118°16'0 0.0
2015-Aug-26 10:33N 33°44' W 118°16'0 0.0
2015-Aug-26 09:14N 33°44' W 118°16'0 0.0
2015-Aug-26 08:03N 33°44' W 118°16'0 0.0
2015-Aug-26 07:30N 33°44' W 118°16'0 0.0
2015-Aug-26 06:33N 33°44' W 118°16'0 0.0
2015-Aug-26 04:17N 33°44' W 118°16'0 0.0
2015-Aug-26 03:29N 33°44' W 118°16'0 0.0
2015-Aug-26 02:31N 33°44' W 118°16'0 0.0
2015-Aug-26 01:34N 33°44' W 118°16'0 0.0
2015-Aug-26 00:31N 33°44' W 118°16'0 0.0
2015-Aug-25 23:32N 33°44' W 118°16'0 0.0
2015-Aug-25 22:31N 33°44' W 118°16'0 0.0
2015-Aug-25 21:25N 33°44' W 118°16'0 0.0
2015-Aug-25 20:33N 33°44' W 118°16'0 0.0
2015-Aug-25 17:12N 33°44' W 118°16'0 0.0
2015-Aug-25 16:13N 33°44' W 118°16'0 0.0
2015-Aug-25 15:32N 33°44' W 118°16'3 2.7
2015-Aug-25 14:34N 33°45' W 118°13'0 0.0
2015-Aug-25 13:34N 33°45' W 118°13'1 1.2
2015-Aug-25 12:32N 33°44' W 118°13'1 0.9
2015-Aug-25 11:30N 33°44' W 118°12'3 3.3
2015-Aug-25 10:32N 33°44' W 118°16'0 0.0
2015-Aug-25 09:32N 33°44' W 118°16'0 0.0
2015-Aug-25 07:34N 33°44' W 118°16'0 0.0
2015-Aug-25 06:34N 33°44' W 118°16'0 0.0
2015-Aug-25 03:31N 33°44' W 118°16'0 0.0
2015-Aug-25 02:34N 33°44' W 118°16'0 0.0
2015-Aug-25 01:34N 33°44' W 118°16'0 0.0
2015-Aug-25 00:33N 33°44' W 118°16'0 0.0
2015-Aug-24 23:33N 33°44' W 118°16'0 0.0
2015-Aug-24 22:09N 33°44' W 118°16'0 0.0
2015-Aug-24 21:33N 33°44' W 118°16'0 0.0
2015-Aug-24 20:33N 33°44' W 118°16'0 0.0
2015-Aug-24 17:13N 33°44' W 118°16'0 0.0
2015-Aug-24 16:23N 33°44' W 118°16'0 0.0
2015-Aug-24 15:32N 33°44' W 118°16'0 0.0
2015-Aug-24 09:29N 33°44' W 118°16'0 0.0
2015-Aug-24 06:05N 33°44' W 118°16'0 0.0
2015-Aug-24 05:21N 33°44' W 118°16'0 0.0
2015-Aug-24 04:25N 33°44' W 118°16'0 0.0
2015-Aug-24 03:25N 33°44' W 118°16'0 0.0
2015-Aug-24 02:14N 33°44' W 118°16'0 0.0
2015-Aug-24 01:33N 33°44' W 118°16'0 0.0
2015-Aug-23 23:34N 33°44' W 118°16'2 0.2
2015-Aug-23 13:33N 33°45' W 118°13'3 2.9
2015-Aug-23 12:33N 33°45' W 118°16'1 0.9
2015-Aug-23 11:33N 33°46' W 118°16'1 0.1
2015-Aug-23 00:29N 33°45' W 118°16'1 1.2
2015-Aug-22 23:33N 33°46' W 118°15'1 0.0
2015-Aug-20 23:24N 33°45' W 118°16'1 0.8
2015-Aug-20 22:32N 33°46' W 118°15'  
Track history (hours):
 
Tides and Currents Weather Stations Pressure Air Temp Water Temp Dewpoint Dewpoint Depression Visibility Wind Speed Wind Dir Waves Ship Positions

John Quigg

Owner: Harley Marine Services, Inc, Seattle, WA. More information available from US FCC via Universal Licensing System and Coast Guard Vessel Documentation Center.

Last reported at 2015-Aug-30 09:33 UTC. Time now 2015-Aug-30 09:58 UTC.
Position N 33°44' W 118°16'.

MMSI: 365934954.

Date/timePositionNaut miles runAvg speedWind from/ knotsBaromVisibWave heightAir tempDewpointWater temp
2015-Aug-30 09:33N 33°44' W 118°16'0 0.0
2015-Aug-30 08:33N 33°44' W 118°16'0 0.0
2015-Aug-30 04:15N 33°44' W 118°16'0 0.0
2015-Aug-30 03:30N 33°44' W 118°16'0 0.0
2015-Aug-30 02:33N 33°44' W 118°16'0 0.0
2015-Aug-30 01:13N 33°44' W 118°16'0 0.0
2015-Aug-30 00:32N 33°44' W 118°16'0 0.0
2015-Aug-29 23:33N 33°44' W 118°16'3 3.1
2015-Aug-29 22:33N 33°44' W 118°12'1 1.0
2015-Aug-29 21:30N 33°44' W 118°11'4 3.7
2015-Aug-29 20:24N 33°43' W 118°16'1 0.3
2015-Aug-29 18:06N 33°44' W 118°16'0 0.0
2015-Aug-29 17:32N 33°44' W 118°16'0 0.0
2015-Aug-29 16:30N 33°44' W 118°16'0 0.0
2015-Aug-29 15:32N 33°44' W 118°16'0 0.0
2015-Aug-29 14:15N 33°44' W 118°16'4 1.3
2015-Aug-29 11:23N 33°44' W 118°11'3 3.5
2015-Aug-29 10:25N 33°43' W 118°15'1 0.4
2015-Aug-29 07:17N 33°44' W 118°16'0 0.0
2015-Aug-29 06:11N 33°44' W 118°16'0 0.0
2015-Aug-29 03:04N 33°44' W 118°16'0 0.0
2015-Aug-29 02:07N 33°44' W 118°16'0 0.0
2015-Aug-29 00:22N 33°44' W 118°16'0 0.0
2015-Aug-28 22:31N 33°44' W 118°16'0 0.0
2015-Aug-28 21:33N 33°44' W 118°16'0 0.0
2015-Aug-28 20:26N 33°44' W 118°16'0 0.0
2015-Aug-28 19:25N 33°44' W 118°16'0 0.0
2015-Aug-28 18:15N 33°44' W 118°16'0 0.0
2015-Aug-28 17:33N 33°44' W 118°16'0 0.0
2015-Aug-28 16:32N 33°44' W 118°16'1 0.8
2015-Aug-28 15:33N 33°44' W 118°17'1 0.7
2015-Aug-28 14:26N 33°44' W 118°16'2 2.4
2015-Aug-28 13:24N 33°45' W 118°13'3 1.3
2015-Aug-28 11:17N 33°43' W 118°16'1 0.3
2015-Aug-28 09:29N 33°44' W 118°16'0 0.0
2015-Aug-28 08:34N 33°44' W 118°16'0 0.0
2015-Aug-28 07:32N 33°44' W 118°16'0 0.0
2015-Aug-28 06:19N 33°44' W 118°16'0 0.0
2015-Aug-28 05:22N 33°44' W 118°16'0 0.0
2015-Aug-28 04:32N 33°44' W 118°16'0 0.0
2015-Aug-28 03:33N 33°44' W 118°16'0 0.0
2015-Aug-28 02:33N 33°44' W 118°16'0 0.2
2015-Aug-28 01:27N 33°44' W 118°15'0 0.2
2015-Aug-28 00:16N 33°44' W 118°16'0 0.0
2015-Aug-27 23:17N 33°44' W 118°16'0 0.0
2015-Aug-27 22:34N 33°44' W 118°16'0 0.0
2015-Aug-27 21:32N 33°44' W 118°16'0 0.0
2015-Aug-27 20:33N 33°44' W 118°16'0 0.0
2015-Aug-27 19:34N 33°44' W 118°16'3 3.0
2015-Aug-27 18:33N 33°44' W 118°12'1 0.6
2015-Aug-27 17:19N 33°44' W 118°12'3 2.8
2015-Aug-27 16:17N 33°44' W 118°16'0 0.1
2015-Aug-27 15:22N 33°44' W 118°16'2 1.3
2015-Aug-27 13:33N 33°45' W 118°13'1 0.8
2015-Aug-27 12:33N 33°46' W 118°13'2 1.8
2015-Aug-27 11:33N 33°44' W 118°12'3 3.0
2015-Aug-27 10:33N 33°44' W 118°16'0 0.3
2015-Aug-27 09:33N 33°44' W 118°16'0 0.0
2015-Aug-27 08:33N 33°44' W 118°16'0 0.0
2015-Aug-27 06:09N 33°44' W 118°16'0 0.0
2015-Aug-27 04:32N 33°44' W 118°16'0 0.0
2015-Aug-27 03:20N 33°44' W 118°16'0 0.0
2015-Aug-27 02:33N 33°44' W 118°16'0 0.0
2015-Aug-27 01:32N 33°44' W 118°16'0 0.0
2015-Aug-27 00:34N 33°44' W 118°16'3 2.8
2015-Aug-26 23:33N 33°44' W 118°12'5 5.4
2015-Aug-26 22:33N 33°44' W 118°06'4 3.9
2015-Aug-26 21:33N 33°44' W 118°11'4 4.1
2015-Aug-26 20:32N 33°44' W 118°16'0 0.0
2015-Aug-26 19:33N 33°44' W 118°16'0 0.0
2015-Aug-26 16:32N 33°44' W 118°16'0 0.0
2015-Aug-26 15:32N 33°44' W 118°16'0 0.0
2015-Aug-26 14:11N 33°44' W 118°16'1 2.0
2015-Aug-26 13:34N 33°43' W 118°15'2 2.3
2015-Aug-26 12:33N 33°44' W 118°12'3 2.8
2015-Aug-26 11:33N 33°44' W 118°16'0 0.0
2015-Aug-26 10:33N 33°44' W 118°16'0 0.0
2015-Aug-26 09:14N 33°44' W 118°16'0 0.0
2015-Aug-26 08:03N 33°44' W 118°16'0 0.0
2015-Aug-26 07:30N 33°44' W 118°16'0 0.0
2015-Aug-26 06:33N 33°44' W 118°16'0 0.0
2015-Aug-26 04:17N 33°44' W 118°16'0 0.0
2015-Aug-26 03:29N 33°44' W 118°16'0 0.0
2015-Aug-26 02:31N 33°44' W 118°16'0 0.0
2015-Aug-26 01:34N 33°44' W 118°16'0 0.0
2015-Aug-26 00:31N 33°44' W 118°16'0 0.0
2015-Aug-25 23:32N 33°44' W 118°16'0 0.0
2015-Aug-25 22:31N 33°44' W 118°16'0 0.0
2015-Aug-25 21:25N 33°44' W 118°16'0 0.0
2015-Aug-25 20:33N 33°44' W 118°16'0 0.0
2015-Aug-25 17:12N 33°44' W 118°16'0 0.0
2015-Aug-25 16:13N 33°44' W 118°16'0 0.0
2015-Aug-25 15:32N 33°44' W 118°16'3 2.7
2015-Aug-25 14:34N 33°45' W 118°13'0 0.0
2015-Aug-25 13:34N 33°45' W 118°13'1 1.2
2015-Aug-25 12:32N 33°44' W 118°13'1 0.9
2015-Aug-25 11:30N 33°44' W 118°12'3 3.3
2015-Aug-25 10:32N 33°44' W 118°16'0 0.0
2015-Aug-25 09:32N 33°44' W 118°16'0 0.0
2015-Aug-25 07:34N 33°44' W 118°16'0 0.0
2015-Aug-25 06:34N 33°44' W 118°16'0 0.0
2015-Aug-25 03:31N 33°44' W 118°16'0 0.0
2015-Aug-25 02:34N 33°44' W 118°16'0 0.0
2015-Aug-25 01:34N 33°44' W 118°16'0 0.0
2015-Aug-25 00:33N 33°44' W 118°16'0 0.0
2015-Aug-24 23:33N 33°44' W 118°16'0 0.0
2015-Aug-24 22:09N 33°44' W 118°16'0 0.0
2015-Aug-24 21:33N 33°44' W 118°16'0 0.0
2015-Aug-24 20:33N 33°44' W 118°16'0 0.0
2015-Aug-24 17:13N 33°44' W 118°16'0 0.0
2015-Aug-24 16:23N 33°44' W 118°16'0 0.0
2015-Aug-24 15:32N 33°44' W 118°16'0 0.0
2015-Aug-24 09:29N 33°44' W 118°16'0 0.0
2015-Aug-24 06:05N 33°44' W 118°16'0 0.0
2015-Aug-24 05:21N 33°44' W 118°16'0 0.0
2015-Aug-24 04:25N 33°44' W 118°16'0 0.0
2015-Aug-24 03:25N 33°44' W 118°16'0 0.0
2015-Aug-24 02:14N 33°44' W 118°16'0 0.0
2015-Aug-24 01:33N 33°44' W 118°16'0 0.0
2015-Aug-23 23:34N 33°44' W 118°16'2 0.2
2015-Aug-23 13:33N 33°45' W 118°13'3 2.9
2015-Aug-23 12:33N 33°45' W 118°16'1 0.9
2015-Aug-23 11:33N 33°46' W 118°16'1 0.1
2015-Aug-23 00:29N 33°45' W 118°16'1 1.2
2015-Aug-22 23:33N 33°46' W 118°15'1 0.0
2015-Aug-20 23:24N 33°45' W 118°16'1 0.8
2015-Aug-20 22:32N 33°46' W 118°15'  

Dump ship's entire track history